sensor_id;sensor_type;location;lat;lon;timestamp;pressure;altitude;pressure_sealevel;temperature;humidity
42591;BME280;28218;53.342;-6.216;2022-11-20T00:01:22;100132.44;;;8.00;100.00
42591;BME280;28218;53.342;-6.216;2022-11-20T00:03:51;100132.44;;;8.00;100.00
42591;BME280;28218;53.342;-6.216;2022-11-20T00:06:23;100138.84;;;7.97;100.00
42591;BME280;28218;53.342;-6.216;2022-11-20T00:08:54;100143.28;;;7.97;100.00
42591;BME280;28218;53.342;-6.216;2022-11-20T00:11:24;100140.78;;;7.95;100.00
42591;BME280;28218;53.342;-6.216;2022-11-20T00:13:57;100147.84;;;7.94;100.00
42591;BME280;28218;53.342;-6.216;2022-11-20T00:16:27;100147.03;;;7.94;100.00
42591;BME280;28218;53.342;-6.216;2022-11-20T00:18:56;100148.84;;;7.93;100.00
42591;BME280;28218;53.342;-6.216;2022-11-20T00:21:25;100149.19;;;7.90;100.00
42591;BME280;28218;53.342;-6.216;2022-11-20T00:23:55;100155.38;;;7.89;100.00
42591;BME280;28218;53.342;-6.216;2022-11-20T00:26:25;100151.13;;;7.88;100.00
42591;BME280;28218;53.342;-6.216;2022-11-20T00:28:56;100157.53;;;7.86;100.00
42591;BME280;28218;53.342;-6.216;2022-11-20T00:31:25;100150.63;;;7.85;100.00
42591;BME280;28218;53.342;-6.216;2022-11-20T00:33:54;100155.75;;;7.86;100.00
42591;BME280;28218;53.342;-6.216;2022-11-20T00:36:25;100167.88;;;7.87;100.00
42591;BME280;28218;53.342;-6.216;2022-11-20T00:38:55;100165.56;;;7.84;100.00
42591;BME280;28218;53.342;-6.216;2022-11-20T00:41:24;100170.81;;;7.84;100.00
42591;BME280;28218;53.342;-6.216;2022-11-20T00:43:55;100165.91;;;7.81;100.00
42591;BME280;28218;53.342;-6.216;2022-11-20T00:46:24;100175.72;;;7.79;100.00
42591;BME280;28218;53.342;-6.216;2022-11-20T00:48:53;100165.41;;;7.78;100.00
42591;BME280;28218;53.342;-6.216;2022-11-20T00:51:23;100180.31;;;7.77;100.00
42591;BME280;28218;53.342;-6.216;2022-11-20T00:53:51;100180.31;;;7.77;100.00
42591;BME280;28218;53.342;-6.216;2022-11-20T00:56:19;100180.47;;;7.76;100.00
42591;BME280;28218;53.342;-6.216;2022-11-20T00:58:48;100194.56;;;7.75;100.00
42591;BME280;28218;53.342;-6.216;2022-11-20T01:01:20;100195.56;;;7.74;100.00
42591;BME280;28218;53.342;-6.216;2022-11-20T01:03:52;100198.34;;;7.72;100.00
42591;BME280;28218;53.342;-6.216;2022-11-20T01:06:22;100201.13;;;7.71;100.00
42591;BME280;28218;53.342;-6.216;2022-11-20T01:08:53;100206.03;;;7.74;100.00
42591;BME280;28218;53.342;-6.216;2022-11-20T01:11:23;100208.66;;;7.74;100.00
42591;BME280;28218;53.342;-6.216;2022-11-20T01:13:52;100206.22;;;7.72;100.00
42591;BME280;28218;53.342;-6.216;2022-11-20T01:16:23;100207.34;;;7.69;100.00
42591;BME280;28218;53.342;-6.216;2022-11-20T01:18:53;100198.66;;;7.69;100.00
42591;BME280;28218;53.342;-6.216;2022-11-20T01:21:23;100207.34;;;7.69;100.00
42591;BME280;28218;53.342;-6.216;2022-11-20T01:23:52;100212.78;;;7.68;100.00
42591;BME280;28218;53.342;-6.216;2022-11-20T01:26:22;100213.38;;;7.62;100.00
42591;BME280;28218;53.342;-6.216;2022-11-20T01:28:51;100218.00;;;7.60;100.00
42591;BME280;28218;53.342;-6.216;2022-11-20T01:31:22;100226.16;;;7.57;100.00
42591;BME280;28218;53.342;-6.216;2022-11-20T01:33:51;100227.97;;;7.56;100.00
42591;BME280;28218;53.342;-6.216;2022-11-20T01:36:21;100230.75;;;7.55;100.00
42591;BME280;28218;53.342;-6.216;2022-11-20T01:38:51;100227.31;;;7.54;100.00
42591;BME280;28218;53.342;-6.216;2022-11-20T01:41:21;100224.03;;;7.52;100.00
42591;BME280;28218;53.342;-6.216;2022-11-20T01:44:12;100219.94;;;7.50;100.00
42591;BME280;28218;53.342;-6.216;2022-11-20T01:46:52;100232.22;;;7.49;100.00
42591;BME280;28218;53.342;-6.216;2022-11-20T01:49:25;100242.84;;;7.48;100.00
42591;BME280;28218;53.342;-6.216;2022-11-20T01:51:57;100236.97;;;7.46;100.00
42591;BME280;28218;53.342;-6.216;2022-11-20T01:54:31;100236.16;;;7.45;100.00
42591;BME280;28218;53.342;-6.216;2022-11-20T01:57:03;100250.53;;;7.41;100.00
42591;BME280;28218;53.342;-6.216;2022-11-20T01:59:33;100255.63;;;7.42;100.00
42591;BME280;28218;53.342;-6.216;2022-11-20T02:02:03;100253.16;;;7.41;100.00
42591;BME280;28218;53.342;-6.216;2022-11-20T02:04:31;100268.06;;;7.40;100.00
42591;BME280;28218;53.342;-6.216;2022-11-20T02:07:00;100262.03;;;7.40;100.00
42591;BME280;28218;53.342;-6.216;2022-11-20T02:09:30;100260.38;;;7.39;100.00
42591;BME280;28218;53.342;-6.216;2022-11-20T02:11:59;100256.25;;;7.36;100.00
42591;BME280;28218;53.342;-6.216;2022-11-20T02:14:28;100263.47;;;7.34;100.00
42591;BME280;28218;53.342;-6.216;2022-11-20T02:16:55;100260.84;;;7.34;100.00
42591;BME280;28218;53.342;-6.216;2022-11-20T02:19:27;100268.72;;;7.34;100.00
42591;BME280;28218;53.342;-6.216;2022-11-20T02:22:00;100265.13;;;7.35;100.00
42591;BME280;28218;53.342;-6.216;2022-11-20T02:24:31;100270.50;;;7.34;100.00
42591;BME280;28218;53.342;-6.216;2022-11-20T02:27:01;100267.06;;;7.33;100.00
42591;BME280;28218;53.342;-6.216;2022-11-20T02:29:33;100286.06;;;7.35;100.00
42591;BME280;28218;53.342;-6.216;2022-11-20T02:32:04;100283.59;;;7.34;100.00
42591;BME280;28218;53.342;-6.216;2022-11-20T02:34:32;100276.88;;;7.31;100.00
42591;BME280;28218;53.342;-6.216;2022-11-20T02:37:00;100284.44;;;7.34;100.00
42591;BME280;28218;53.342;-6.216;2022-11-20T02:39:30;100279.19;;;7.34;100.00
42591;BME280;28218;53.342;-6.216;2022-11-20T02:42:01;100276.94;;;7.39;100.00
42591;BME280;28218;53.342;-6.216;2022-11-20T02:44:29;100278.25;;;7.43;100.00
42591;BME280;28218;53.342;-6.216;2022-11-20T02:46:58;100275.16;;;7.48;100.00
42591;BME280;28218;53.342;-6.216;2022-11-20T02:49:27;100268.75;;;7.51;100.00
42591;BME280;28218;53.342;-6.216;2022-11-20T02:51:55;100278.94;;;7.54;100.00
42591;BME280;28218;53.342;-6.216;2022-11-20T02:54:23;100269.09;;;7.56;100.00
42591;BME280;28218;53.342;-6.216;2022-11-20T02:56:52;100268.44;;;7.54;100.00
42591;BME280;28218;53.342;-6.216;2022-11-20T02:59:21;100262.53;;;7.52;100.00
42591;BME280;28218;53.342;-6.216;2022-11-20T03:01:49;100274.00;;;7.51;100.00
42591;BME280;28218;53.342;-6.216;2022-11-20T03:04:18;100268.13;;;7.49;100.00
42591;BME280;28218;53.342;-6.216;2022-11-20T03:06:46;100272.16;;;7.43;100.00
42591;BME280;28218;53.342;-6.216;2022-11-20T03:09:14;100280.03;;;7.43;100.00
42591;BME280;28218;53.342;-6.216;2022-11-20T03:11:43;100278.88;;;7.37;100.00
42591;BME280;28218;53.342;-6.216;2022-11-20T03:14:12;100272.28;;;7.33;100.00
42591;BME280;28218;53.342;-6.216;2022-11-20T03:16:40;100277.06;;;7.30;100.00
42591;BME280;28218;53.342;-6.216;2022-11-20T03:19:09;100288.00;;;7.25;100.00
42591;BME280;28218;53.342;-6.216;2022-11-20T03:21:37;100297.81;;;7.23;100.00
42591;BME280;28218;53.342;-6.216;2022-11-20T03:24:06;100287.50;;;7.22;100.00
42591;BME280;28218;53.342;-6.216;2022-11-20T03:26:34;100279.13;;;7.18;100.00
42591;BME280;28218;53.342;-6.216;2022-11-20T03:29:04;100286.47;;;7.14;100.00
42591;BME280;28218;53.342;-6.216;2022-11-20T03:31:35;100273.34;;;7.14;100.00
42591;BME280;28218;53.342;-6.216;2022-11-20T03:34:04;100269.28;;;7.12;100.00
42591;BME280;28218;53.342;-6.216;2022-11-20T03:36:32;100267.63;;;7.11;100.00
42591;BME280;28218;53.342;-6.216;2022-11-20T03:39:01;100266.94;;;7.09;100.00
42591;BME280;28218;53.342;-6.216;2022-11-20T03:41:30;100270.38;;;7.09;100.00
42591;BME280;28218;53.342;-6.216;2022-11-20T03:44:01;100269.56;;;7.09;100.00
42591;BME280;28218;53.342;-6.216;2022-11-20T03:46:30;100263.81;;;7.05;100.00
42591;BME280;28218;53.342;-6.216;2022-11-20T03:49:00;100270.72;;;7.06;100.00
42591;BME280;28218;53.342;-6.216;2022-11-20T03:51:29;100275.44;;;7.03;100.00
42591;BME280;28218;53.342;-6.216;2022-11-20T03:54:02;100266.91;;;7.01;100.00
42591;BME280;28218;53.342;-6.216;2022-11-20T03:56:32;100270.50;;;7.00;100.00
42591;BME280;28218;53.342;-6.216;2022-11-20T03:59:01;100282.94;;;6.98;100.00
42591;BME280;28218;53.342;-6.216;2022-11-20T04:01:31;100287.03;;;7.00;100.00
42591;BME280;28218;53.342;-6.216;2022-11-20T04:04:01;100288.19;;;6.98;100.00
42591;BME280;28218;53.342;-6.216;2022-11-20T04:06:32;100279.06;;;7.02;100.00
42591;BME280;28218;53.342;-6.216;2022-11-20T04:09:01;100292.78;;;7.04;100.00
42591;BME280;28218;53.342;-6.216;2022-11-20T04:11:31;100289.38;;;7.03;100.00
42591;BME280;28218;53.342;-6.216;2022-11-20T04:14:01;100294.59;;;7.03;100.00
42591;BME280;28218;53.342;-6.216;2022-11-20T04:16:31;100276.91;;;7.05;100.00
42591;BME280;28218;53.342;-6.216;2022-11-20T04:19:03;100282.03;;;7.07;100.00
42591;BME280;28218;53.342;-6.216;2022-11-20T04:21:32;100279.22;;;7.08;100.00
42591;BME280;28218;53.342;-6.216;2022-11-20T04:24:00;100283.66;;;7.08;100.00
42591;BME280;28218;53.342;-6.216;2022-11-20T04:26:29;100290.00;;;7.05;100.00
42591;BME280;28218;53.342;-6.216;2022-11-20T04:28:58;100302.28;;;7.05;100.00
42591;BME280;28218;53.342;-6.216;2022-11-20T04:31:30;100305.25;;;7.02;100.00
42591;BME280;28218;53.342;-6.216;2022-11-20T04:34:01;100306.19;;;7.01;100.00
42591;BME280;28218;53.342;-6.216;2022-11-20T04:36:29;100310.94;;;6.97;100.00
42591;BME280;28218;53.342;-6.216;2022-11-20T04:39:01;100325.16;;;6.95;100.00
42591;BME280;28218;53.342;-6.216;2022-11-20T04:41:31;100328.59;;;6.95;100.00
42591;BME280;28218;53.342;-6.216;2022-11-20T04:44:00;100325.31;;;6.93;100.00
42591;BME280;28218;53.342;-6.216;2022-11-20T04:46:31;100334.00;;;6.94;100.00
42591;BME280;28218;53.342;-6.216;2022-11-20T04:49:01;100336.63;;;6.94;100.00
42591;BME280;28218;53.342;-6.216;2022-11-20T04:51:29;100334.00;;;6.94;100.00
42591;BME280;28218;53.342;-6.216;2022-11-20T04:53:58;100339.25;;;6.94;100.00
42591;BME280;28218;53.342;-6.216;2022-11-20T04:56:26;100343.66;;;6.93;100.00
42591;BME280;28218;53.342;-6.216;2022-11-20T04:58:54;100343.66;;;6.93;100.00
42591;BME280;28218;53.342;-6.216;2022-11-20T05:01:23;100341.34;;;6.90;100.00
42591;BME280;28218;53.342;-6.216;2022-11-20T05:03:52;100343.13;;;6.89;100.00
42591;BME280;28218;53.342;-6.216;2022-11-20T05:06:22;100340.50;;;6.89;100.00
42591;BME280;28218;53.342;-6.216;2022-11-20T05:08:50;100339.88;;;6.87;100.00
42591;BME280;28218;53.342;-6.216;2022-11-20T05:11:19;100348.53;;;6.88;100.00
42591;BME280;28218;53.342;-6.216;2022-11-20T05:13:48;100354.75;;;6.87;100.00
42591;BME280;28218;53.342;-6.216;2022-11-20T05:16:18;100353.91;;;6.86;100.00
42591;BME280;28218;53.342;-6.216;2022-11-20T05:18:47;100357.22;;;6.88;100.00
42591;BME280;28218;53.342;-6.216;2022-11-20T05:21:16;100360.00;;;6.87;100.00
42591;BME280;28218;53.342;-6.216;2022-11-20T05:23:46;100357.50;;;6.85;100.00
42591;BME280;28218;53.342;-6.216;2022-11-20T05:26:16;100363.56;;;6.86;100.00
42591;BME280;28218;53.342;-6.216;2022-11-20T05:28:45;100363.44;;;6.87;100.00
42591;BME280;28218;53.342;-6.216;2022-11-20T05:31:15;100360.00;;;6.87;100.00
42591;BME280;28218;53.342;-6.216;2022-11-20T05:33:52;100357.50;;;6.85;100.00
42591;BME280;28218;53.342;-6.216;2022-11-20T05:36:20;100355.56;;;6.87;100.00
42591;BME280;28218;53.342;-6.216;2022-11-20T05:38:49;100362.75;;;6.85;100.00
42591;BME280;28218;53.342;-6.216;2022-11-20T05:41:25;100346.22;;;6.85;100.00
42591;BME280;28218;53.342;-6.216;2022-11-20T05:43:55;100354.22;;;6.83;100.00
42591;BME280;28218;53.342;-6.216;2022-11-20T05:46:23;100347.34;;;6.82;100.00
42591;BME280;28218;53.342;-6.216;2022-11-20T05:48:55;100336.34;;;6.79;100.00
42591;BME280;28218;53.342;-6.216;2022-11-20T05:51:23;100342.56;;;6.78;100.00
42591;BME280;28218;53.342;-6.216;2022-11-20T05:53:53;100341.88;;;6.76;100.00
42591;BME280;28218;53.342;-6.216;2022-11-20T05:56:23;100343.41;;;6.78;100.00
42591;BME280;28218;53.342;-6.216;2022-11-20T05:58:52;100338.44;;;6.75;100.00
42591;BME280;28218;53.342;-6.216;2022-11-20T06:01:22;100335.84;;;6.75;100.00
42591;BME280;28218;53.342;-6.216;2022-11-20T06:03:51;100338.75;;;6.72;100.00
42591;BME280;28218;53.342;-6.216;2022-11-20T06:06:20;100336.13;;;6.72;100.00
42591;BME280;28218;53.342;-6.216;2022-11-20T06:08:49;100333.50;;;6.72;100.00
42591;BME280;28218;53.342;-6.216;2022-11-20T06:11:18;100323.03;;;6.72;100.00
42591;BME280;28218;53.342;-6.216;2022-11-20T06:13:47;100316.97;;;6.72;100.00
42591;BME280;28218;53.342;-6.216;2022-11-20T06:16:18;100316.84;;;6.73;100.00
42591;BME280;28218;53.342;-6.216;2022-11-20T06:18:47;100315.19;;;6.72;100.00
42591;BME280;28218;53.342;-6.216;2022-11-20T06:21:17;100316.84;;;6.73;100.00
42591;BME280;28218;53.342;-6.216;2022-11-20T06:23:46;100315.19;;;6.72;100.00
42591;BME280;28218;53.342;-6.216;2022-11-20T06:26:16;100304.88;;;6.71;100.00
42591;BME280;28218;53.342;-6.216;2022-11-20T06:28:46;100303.88;;;6.72;100.00
42591;BME280;28218;53.342;-6.216;2022-11-20T06:31:16;100302.91;;;6.73;100.00
42591;BME280;28218;53.342;-6.216;2022-11-20T06:33:45;100304.72;;;6.72;100.00
42591;BME280;28218;53.342;-6.216;2022-11-20T06:36:14;100300.44;;;6.71;100.00
42591;BME280;28218;53.342;-6.216;2022-11-20T06:38:43;100298.81;;;6.70;100.00
42591;BME280;28218;53.342;-6.216;2022-11-20T06:41:14;100293.41;;;6.72;100.00
42591;BME280;28218;53.342;-6.216;2022-11-20T06:43:42;100298.66;;;6.72;100.00
42591;BME280;28218;53.342;-6.216;2022-11-20T06:46:13;100304.72;;;6.72;100.00
42591;BME280;28218;53.342;-6.216;2022-11-20T06:48:44;100302.91;;;6.73;100.00
42591;BME280;28218;53.342;-6.216;2022-11-20T06:51:12;100294.22;;;6.72;100.00
42591;BME280;28218;53.342;-6.216;2022-11-20T06:53:41;100295.06;;;6.73;100.00
42591;BME280;28218;53.342;-6.216;2022-11-20T06:56:09;100308.16;;;6.73;100.00
42591;BME280;28218;53.342;-6.216;2022-11-20T06:58:37;100303.59;;;6.75;100.00
42591;BME280;28218;53.342;-6.216;2022-11-20T07:01:09;100307.69;;;6.77;100.00
42591;BME280;28218;53.342;-6.216;2022-11-20T07:03:40;100301.78;;;6.75;100.00
42591;BME280;28218;53.342;-6.216;2022-11-20T07:06:08;100300.00;;;6.76;100.00
42591;BME280;28218;53.342;-6.216;2022-11-20T07:08:36;100307.69;;;6.77;100.00
42591;BME280;28218;53.342;-6.216;2022-11-20T07:11:06;100297.38;;;6.76;100.00
42591;BME280;28218;53.342;-6.216;2022-11-20T07:13:35;100297.22;;;6.77;100.00
42591;BME280;28218;53.342;-6.216;2022-11-20T07:16:05;100303.13;;;6.79;100.00
42591;BME280;28218;53.342;-6.216;2022-11-20T07:18:34;100298.88;;;6.78;100.00
42591;BME280;28218;53.342;-6.216;2022-11-20T07:21:05;100301.34;;;6.80;100.00
42591;BME280;28218;53.342;-6.216;2022-11-20T07:23:33;100293.63;;;6.78;100.00
42591;BME280;28218;53.342;-6.216;2022-11-20T07:26:03;100284.97;;;6.78;100.00
42591;BME280;28218;53.342;-6.216;2022-11-20T07:28:31;100283.47;;;6.75;100.00
42591;BME280;28218;53.342;-6.216;2022-11-20T07:31:00;100286.09;;;6.75;100.00
42591;BME280;28218;53.342;-6.216;2022-11-20T07:33:28;100281.50;;;6.77;100.00
42591;BME280;28218;53.342;-6.216;2022-11-20T07:35:58;100282.47;;;6.76;100.00
42591;BME280;28218;53.342;-6.216;2022-11-20T07:38:28;100298.06;;;6.78;100.00
42591;BME280;28218;53.342;-6.216;2022-11-20T07:40:56;100297.22;;;6.77;100.00
42591;BME280;28218;53.342;-6.216;2022-11-20T07:43:28;100298.88;;;6.78;100.00
42591;BME280;28218;53.342;-6.216;2022-11-20T07:45:56;100298.56;;;6.81;100.00
42591;BME280;28218;53.342;-6.216;2022-11-20T07:48:25;100297.72;;;6.81;100.00
42591;BME280;28218;53.342;-6.216;2022-11-20T07:50:53;100310.69;;;6.82;100.00
42591;BME280;28218;53.342;-6.216;2022-11-20T07:53:22;100301.03;;;6.83;100.00
42591;BME280;28218;53.342;-6.216;2022-11-20T07:55:51;100297.59;;;6.82;100.00
42591;BME280;28218;53.342;-6.216;2022-11-20T07:58:20;100291.06;;;6.86;100.00
42591;BME280;28218;53.342;-6.216;2022-11-20T08:00:48;100284.88;;;6.87;100.00
42591;BME280;28218;53.342;-6.216;2022-11-20T08:03:16;100288.94;;;6.90;100.00
42591;BME280;28218;53.342;-6.216;2022-11-20T08:05:50;100291.09;;;6.95;100.00
42591;BME280;28218;53.342;-6.216;2022-11-20T08:08:19;100293.44;;;6.98;100.00
42591;BME280;28218;53.342;-6.216;2022-11-20T08:10:47;100290.47;;;7.01;100.00
42591;BME280;28218;53.342;-6.216;2022-11-20T08:13:17;100287.84;;;7.01;100.00
42591;BME280;28218;53.342;-6.216;2022-11-20T08:16:03;100280.69;;;7.03;100.00
42591;BME280;28218;53.342;-6.216;2022-11-20T08:18:31;100283.81;;;7.06;100.00
42591;BME280;28218;53.342;-6.216;2022-11-20T08:21:02;100277.59;;;7.07;100.00
42591;BME280;28218;53.342;-6.216;2022-11-20T08:23:31;100283.34;;;7.11;100.00
42591;BME280;28218;53.342;-6.216;2022-11-20T08:25:59;100288.59;;;7.11;100.00
42591;BME280;28218;53.342;-6.216;2022-11-20T08:28:29;100289.41;;;7.11;100.00
42591;BME280;28218;53.342;-6.216;2022-11-20T08:31:00;100279.75;;;7.12;100.00
42591;BME280;28218;53.342;-6.216;2022-11-20T08:33:29;100280.25;;;7.15;100.00
42591;BME280;28218;53.342;-6.216;2022-11-20T08:36:00;100277.47;;;7.17;100.00
42591;BME280;28218;53.342;-6.216;2022-11-20T08:38:29;100285.19;;;7.18;100.00
42591;BME280;28218;53.342;-6.216;2022-11-20T08:40:57;100295.34;;;7.22;100.00
42591;BME280;28218;53.342;-6.216;2022-11-20T08:43:45;100294.72;;;7.28;100.00
42591;BME280;28218;53.342;-6.216;2022-11-20T08:46:13;100295.22;;;7.31;100.00
42591;BME280;28218;53.342;-6.216;2022-11-20T08:48:42;100303.59;;;7.35;100.00
42591;BME280;28218;53.342;-6.216;2022-11-20T08:51:11;100297.22;;;7.37;100.00
42591;BME280;28218;53.342;-6.216;2022-11-20T08:53:39;100293.13;;;7.43;100.00
42591;BME280;28218;53.342;-6.216;2022-11-20T08:56:08;100299.88;;;7.46;100.00
42591;BME280;28218;53.342;-6.216;2022-11-20T08:58:36;100270.72;;;7.49;100.00
42591;BME280;28218;53.342;-6.216;2022-11-20T09:01:27;100281.69;;;7.52;100.00
42591;BME280;28218;53.342;-6.216;2022-11-20T09:03:56;100279.75;;;7.54;100.00
42591;BME280;28218;53.342;-6.216;2022-11-20T09:06:24;100282.03;;;7.57;100.00
42591;BME280;28218;53.342;-6.216;2022-11-20T09:08:53;100250.44;;;7.59;100.00
42591;BME280;28218;53.342;-6.216;2022-11-20T09:11:21;100251.25;;;7.59;100.00
42591;BME280;28218;53.342;-6.216;2022-11-20T09:13:50;100260.59;;;7.62;100.00
42591;BME280;28218;53.342;-6.216;2022-11-20T09:16:18;100250.09;;;7.62;100.00
42591;BME280;28218;53.342;-6.216;2022-11-20T09:18:49;100250.09;;;7.62;100.00
42591;BME280;28218;53.342;-6.216;2022-11-20T09:21:38;100237.00;;;7.62;100.00
42591;BME280;28218;53.342;-6.216;2022-11-20T09:24:06;100217.00;;;7.61;100.00
42591;BME280;28218;53.342;-6.216;2022-11-20T09:26:34;100221.94;;;7.64;100.00
42591;BME280;28218;53.342;-6.216;2022-11-20T09:29:03;100213.06;;;7.65;100.00
42591;BME280;28218;53.342;-6.216;2022-11-20T09:31:31;100220.94;;;7.65;100.00
42591;BME280;28218;53.342;-6.216;2022-11-20T09:34:00;100216.69;;;7.64;100.00
42591;BME280;28218;53.342;-6.216;2022-11-20T09:36:29;100213.06;;;7.65;100.00
42591;BME280;28218;53.342;-6.216;2022-11-20T09:38:57;100209.63;;;7.64;100.00
42591;BME280;28218;53.342;-6.216;2022-11-20T09:41:53;100208.34;;;7.68;100.00
42591;BME280;28218;53.342;-6.216;2022-11-20T09:44:49;100210.78;;;7.70;100.00
42591;BME280;28218;53.342;-6.216;2022-11-20T09:47:25;100219.34;;;7.72;100.00
42591;BME280;28218;53.342;-6.216;2022-11-20T09:50:07;100214.56;;;7.76;100.00
42591;BME280;28218;53.342;-6.216;2022-11-20T09:53:00;100211.78;;;7.77;100.00
42591;BME280;28218;53.342;-6.216;2022-11-20T09:55:34;100217.50;;;7.81;100.00
42591;BME280;28218;53.342;-6.216;2022-11-20T09:58:05;100229.66;;;7.82;100.00
42591;BME280;28218;53.342;-6.216;2022-11-20T10:00:35;100240.97;;;7.82;100.00
42591;BME280;28218;53.342;-6.216;2022-11-20T10:03:13;100229.50;;;7.83;100.00
42591;BME280;28218;53.342;-6.216;2022-11-20T10:05:45;100247.19;;;7.89;100.00
42591;BME280;28218;53.342;-6.216;2022-11-20T10:08:19;100237.88;;;7.87;100.00
42591;BME280;28218;53.342;-6.216;2022-11-20T10:10:54;100259.34;;;7.90;100.00
42591;BME280;28218;53.342;-6.216;2022-11-20T10:13:33;100253.44;;;7.88;100.00
42591;BME280;28218;53.342;-6.216;2022-11-20T10:16:14;100264.75;;;7.89;100.00
42591;BME280;28218;53.342;-6.216;2022-11-20T10:18:59;100259.34;;;7.90;100.00
42591;BME280;28218;53.342;-6.216;2022-11-20T10:21:38;100273.28;;;7.91;100.00
42591;BME280;28218;53.342;-6.216;2022-11-20T10:24:29;100281.63;;;7.94;100.00
42591;BME280;28218;53.342;-6.216;2022-11-20T10:27:09;100280.00;;;7.93;100.00
42591;BME280;28218;53.342;-6.216;2022-11-20T10:29:45;100277.22;;;7.95;100.00
42591;BME280;28218;53.342;-6.216;2022-11-20T10:32:16;100287.38;;;7.98;100.00
42591;BME280;28218;53.342;-6.216;2022-11-20T10:34:50;100295.44;;;7.97;100.00
42591;BME280;28218;53.342;-6.216;2022-11-20T10:37:22;100301.19;;;8.00;100.00
42591;BME280;28218;53.342;-6.216;2022-11-20T10:39:56;100300.50;;;7.98;100.00
42591;BME280;28218;53.342;-6.216;2022-11-20T10:42:31;100300.34;;;8.00;100.00
42591;BME280;28218;53.342;-6.216;2022-11-20T10:45:11;100306.56;;;7.99;100.00
42591;BME280;28218;53.342;-6.216;2022-11-20T10:47:43;100330.03;;;7.92;100.00
42591;BME280;28218;53.342;-6.216;2022-11-20T10:50:19;100319.19;;;7.87;100.00
42591;BME280;28218;53.342;-6.216;2022-11-20T10:52:57;100325.75;;;7.91;100.00
42591;BME280;28218;53.342;-6.216;2022-11-20T10:55:33;100344.25;;;7.89;100.00
42591;BME280;28218;53.342;-6.216;2022-11-20T10:58:12;100337.88;;;7.92;100.00
42591;BME280;28218;53.342;-6.216;2022-11-20T11:00:41;100331.66;;;7.93;100.00
42591;BME280;28218;53.342;-6.216;2022-11-20T11:03:21;100348.69;;;7.89;100.00
42591;BME280;28218;53.342;-6.216;2022-11-20T11:05:53;100337.06;;;7.91;100.00
42591;BME280;28218;53.342;-6.216;2022-11-20T11:08:26;100348.06;;;8.03;100.00
42591;BME280;28218;53.342;-6.216;2022-11-20T11:10:57;100345.66;;;8.10;100.00
42591;BME280;28218;53.342;-6.216;2022-11-20T11:13:29;100341.72;;;8.22;100.00
42591;BME280;28218;53.342;-6.216;2022-11-20T11:15:57;100356.84;;;8.36;100.00
42591;BME280;28218;53.342;-6.216;2022-11-20T11:18:27;100361.13;;;8.54;100.00
42591;BME280;28218;53.342;-6.216;2022-11-20T11:20:57;100363.13;;;8.68;100.00
42591;BME280;28218;53.342;-6.216;2022-11-20T11:23:31;100367.38;;;8.69;100.00
42591;BME280;28218;53.342;-6.216;2022-11-20T11:26:02;100369.19;;;8.68;100.00
42591;BME280;28218;53.342;-6.216;2022-11-20T11:28:31;100365.72;;;8.60;100.00
42591;BME280;28218;53.342;-6.216;2022-11-20T11:31:00;100364.41;;;8.56;100.00
42591;BME280;28218;53.342;-6.216;2022-11-20T11:33:29;100354.59;;;8.58;100.00
42591;BME280;28218;53.342;-6.216;2022-11-20T11:36:00;100357.53;;;8.71;100.00
42591;BME280;28218;53.342;-6.216;2022-11-20T11:38:34;100347.50;;;8.83;100.00
42591;BME280;28218;53.342;-6.216;2022-11-20T11:41:04;100353.06;;;8.88;100.00
42591;BME280;28218;53.342;-6.216;2022-11-20T11:43:34;100346.34;;;8.93;100.00
42591;BME280;28218;53.342;-6.216;2022-11-20T11:46:32;100346.31;;;9.02;100.00
42591;BME280;28218;53.342;-6.216;2022-11-20T11:49:08;100349.63;;;9.04;100.00
42591;BME280;28218;53.342;-6.216;2022-11-20T11:51:47;100350.91;;;9.08;
42591;BME280;28218;53.342;-6.216;2022-11-20T11:54:25;100354.84;;;9.12;100.00
42591;BME280;28218;53.342;-6.216;2022-11-20T11:56:59;100366.84;;;9.14;100.00
42591;BME280;28218;53.342;-6.216;2022-11-20T11:59:33;100383.44;;;9.15;100.00
42591;BME280;28218;53.342;-6.216;2022-11-20T12:02:19;100374.06;;;9.12;100.00
42591;BME280;28218;53.342;-6.216;2022-11-20T12:04:54;100375.06;;;9.11;100.00
42591;BME280;28218;53.342;-6.216;2022-11-20T12:07:34;100375.88;;;9.12;100.00
42591;BME280;28218;53.342;-6.216;2022-11-20T12:10:21;100376.69;;;9.12;100.00
42591;BME280;28218;53.342;-6.216;2022-11-20T12:12:56;100370.16;;;9.08;100.00
42591;BME280;28218;53.342;-6.216;2022-11-20T12:15:30;100376.69;;;9.12;100.00
42591;BME280;28218;53.342;-6.216;2022-11-20T12:17:59;100369.97;;;9.10;100.00
42591;BME280;28218;53.342;-6.216;2022-11-20T12:20:31;100368.31;;;9.17;100.00
42591;BME280;28218;53.342;-6.216;2022-11-20T12:23:09;100361.09;;;9.19;100.00
42591;BME280;28218;53.342;-6.216;2022-11-20T12:25:44;100366.16;;;9.20;100.00
42591;BME280;28218;53.342;-6.216;2022-11-20T12:28:20;100360.41;;;9.25;100.00
42591;BME280;28218;53.342;-6.216;2022-11-20T12:31:03;100350.72;;;9.26;100.00
42591;BME280;28218;53.342;-6.216;2022-11-20T12:33:49;100363.22;;;9.24;100.00
42591;BME280;28218;53.342;-6.216;2022-11-20T12:36:32;100372.09;;;9.23;100.00
42591;BME280;28218;53.342;-6.216;2022-11-20T12:39:18;100367.97;;;9.20;100.00
42591;BME280;28218;53.342;-6.216;2022-11-20T12:42:13;100370.44;;;9.21;100.00
42591;BME280;28218;53.342;-6.216;2022-11-20T12:45:27;100374.72;;;9.23;100.00
42591;BME280;28218;53.342;-6.216;2022-11-20T12:48:22;100380.81;;;9.23;100.00
42591;BME280;28218;53.342;-6.216;2022-11-20T12:51:15;100364.66;;;9.26;100.00
42591;BME280;28218;53.342;-6.216;2022-11-20T12:53:56;100385.19;;;9.31;100.00
42591;BME280;28218;53.342;-6.216;2022-11-20T12:56:30;100392.44;;;9.29;100.00
42591;BME280;28218;53.342;-6.216;2022-11-20T12:59:23;100383.38;;;9.31;100.00
42591;BME280;28218;53.342;-6.216;2022-11-20T13:01:57;100392.63;;;9.27;100.00
42591;BME280;28218;53.342;-6.216;2022-11-20T13:04:55;100389.50;;;9.32;100.00